• Join FlightAware (Why Join?)
  • Login
  • US Flag 
03:24PM EDT


 

Airport Tracker/Info


-or-


 

Live Flight TrackerFlight Track Log ✈ N775NC ✈ 24-Oct-2013 ✈ KCHS - KATL

Flight Track Log - Related Links

Times and Time Zones

All times are in EDT time to prevent confusion due to time zone crossing. See the N775NC flight status page for this flight to view local times or setup timezone preferences in your user account.

Time Position Orientation Groundspeed Altitude Reporting Facility
EDT Latitude Longitude Course Direction KTS MPH feet Rate Location/Type
02:13PM 32.9694 -80.2333 254° West 244 281 6,400  Level Jacksonville Center
02:14PM 32.9665 -80.4061 264° West  Level Estimated
02:14PM 32.9692 -80.3150 270° West 253 291 9,200  Level Jacksonville Center
02:15PM 32.9833 -80.4976 270° West  Level Estimated
02:15PM 32.9708 -80.4017 271° West 253 291 10,600  Level Jacksonville Center
02:16PM 32.9618 -80.5876 254° West  Level FlightAware Approximate
02:16PM 32.9828 -80.4881 279° West 274 315 12,100  Level Jacksonville Center
02:17PM 32.9410 -80.6744 254° West  Level FlightAware Approximate
02:17PM 33.0078 -80.5864 287° West 291 335 14,400  Level Jacksonville Center
02:18PM 32.9201 -80.7611 254° West  Level FlightAware Approximate
02:18PM 33.0242 -80.6875 281° West 306 352 16,600  Level Jacksonville Center
02:19PM 33.0028 -80.7922 256° West 316 364 18,100 1,560 Climbing Jacksonville Center
02:20PM 32.9794 -80.8967 255° West 322 371 19,800 1,500 Climbing Jacksonville Center
02:21PM 32.9203 -80.9844 231° Southwest 332 382 21,100 1,260 Climbing Jacksonville Center
02:22PM 32.8400 -81.0631 219° Southwest 350 403 22,400 900 Climbing Jacksonville Center
02:23PM 32.7556 -81.1436 219° Southwest 373 429 23,000 600 Climbing Jacksonville Center
02:24PM 32.6608 -81.2369 220° Southwest 395 455 23,700 1,200 Climbing Jacksonville Center
02:25PM 32.5786 -81.3197 220° Southwest 401 461 25,500 1,260 Climbing Jacksonville Center
02:28PM 32.4900 -81.5786 248° West 363 418 28,100 720 Climbing Atlanta Center
02:29PM 32.4967 -81.7067 274° West 376 433 28,000 -60 Descending Atlanta Center
02:30PM 32.5075 -81.8369 276° West 389 448 28,000  Level Atlanta Center
02:31PM 32.5119 -81.9772 272° West 395 455 28,000  Level Atlanta Center
02:32PM 32.5058 -82.1078 267° West 390 449 28,000  Level Atlanta Center
02:33PM 32.5119 -82.2358 273° West 395 455 28,000  Level Atlanta Center
02:34PM 32.5347 -82.3633 282° West 395 455 28,100  Climbing Atlanta Center
02:35PM 32.5572 -82.4911 282° West 401 461 28,000  Descending Atlanta Center
02:36PM 32.5714 -82.6289 277° West 407 468 28,100 -60 Climbing Atlanta Center
02:37PM 32.5622 -82.7622 265° West 407 468 27,900 -600 Descending Atlanta Center
02:38PM 32.5867 -82.8925 283° West 399 459 27,000 -900 Descending Atlanta Center
02:39PM 32.6792 -82.9875 319° Northwest 401 461 26,200 -900 Descending Atlanta Center
02:40PM 32.7492 -83.0953 308° West 406 467 25,300 -900 Descending Atlanta Center
02:41PM 32.8125 -83.2008 306° West 406 467 24,400 -900 Descending Atlanta Center
02:42PM 32.8883 -83.3042 311° West 406 467 23,500 -2,100 Descending Atlanta Center
02:43PM 32.9578 -83.4000 311° West 400 460 20,200 -3,060 Descending Atlanta Center
02:44PM 33.0228 -83.4961 309° West 388 447 17,400 -2,820 Descending Atlanta Center
02:45PM 33.0794 -83.5925 305° West 373 429 14,600 -2,580 Descending Atlanta Center
02:46PM 33.1383 -83.6767 310° West 352 405 12,300 -1,320 Descending Atlanta Center
02:47PM 33.1864 -83.7508 308° West 325 374 12,000 -180 Descending Atlanta Center
02:48PM 33.2389 -83.8253 310° West 311 358 12,000 -120 Level Atlanta Center
02:49PM 33.2911 -83.9022 309° West 301 346 11,800 -600 Descending Atlanta Center
02:50PM 33.3350 -83.9692 308° West 279 321 10,900 -1,380 Descending Atlanta Center
02:51PM 33.3767 -84.0314 309° West 251 289 9,100 -1,920 Descending Atlanta Center
02:52PM 33.4331 -84.0661 333° Northwest 226 260 7,100 -1,860 Descending Atlanta Center
02:53PM 33.5103 -84.0811 351° North 239 275 5,400 -1,260 Descending Atlanta Center
02:54PM 33.5792 -84.0961 350° North 248 285 4,600 -600 Descending Atlanta Center
02:55PM 33.6167 -84.1667 303° West 212 244 4,000 -240 Descending Atlanta TRACON
02:56PM 33.6167 -84.2333 270° West 161 185 4,000 -420 Level Atlanta TRACON
02:57PM 33.6167 -84.2833 270° West 167 192 3,200 -900 Descending Atlanta TRACON
02:58PM 33.6167 -84.3333 270° West 162 186 2,300 -840 Descending Atlanta TRACON
02:59PM 33.6167 -84.3833 270° West 141 162 1,600 -720 Descending Atlanta TRACON